Time;durP1;ratioP1;P1;durP2;ratioP2;P2;SDS_P1;SDS_P2;PMS_P1;PMS_P2;Temp;Humidity;BMP_temperature;BMP_pressure;BME280_temperature;BME280_humidity;BME280_pressure;Samples;Min_cycle;Max_cycle;Signal;HPM_P1;HPM_P2
2022/03/24 00:00:15;;;;;;;53.15;41.95;;;4.40;99.90;;;;;;5092340;28;20128;-44
2022/03/24 00:02:41;;;;;;;59.90;44.25;;;;;;;;;;5092983;28;20180;-46
2022/03/24 00:05:08;;;;;;;58.58;40.45;;;4.30;99.90;;;;;;5093329;28;20192;-45
2022/03/24 00:07:35;;;;;;;59.83;43.75;;;4.30;99.90;;;;;;5091860;28;20115;-47
2022/03/24 00:10:01;;;;;;;61.55;47.65;;;;;;;;;;5090978;28;20093;-47
2022/03/24 00:12:27;;;;;;;67.22;48.33;;;;;;;;;;5092340;28;20565;-47
2022/03/24 00:14:53;;;;;;;65.68;49.85;;;;;;;;;;5092552;28;20039;-50
2022/03/24 00:17:19;;;;;;;64.57;45.15;;;;;;;;;;5091109;28;20130;-46
2022/03/24 00:19:46;;;;;;;61.72;45.28;;;4.30;99.90;;;;;;5090827;28;20054;-50
2022/03/24 00:22:12;;;;;;;61.83;47.25;;;;;;;;;;5092287;28;20043;-46
2022/03/24 00:24:39;;;;;;;60.42;46.28;;;;;;;;;;5091868;28;20679;-49
2022/03/24 00:27:05;;;;;;;55.42;44.05;;;;;;;;;;5091549;28;20047;-48
2022/03/24 00:29:32;;;;;;;58.63;44.45;;;;;;;;;;5091228;28;20608;-49
2022/03/24 00:31:58;;;;;;;58.85;44.55;;;;;;;;;;5094071;28;20542;-48
2022/03/24 00:34:24;;;;;;;59.50;44.97;;;;;;;;;;5096021;28;20039;-50
2022/03/24 00:36:50;;;;;;;65.50;46.78;;;;;;;;;;5096673;28;20138;-50
2022/03/24 00:39:16;;;;;;;63.13;47.65;;;;;;;;;;5095918;28;20040;-50
2022/03/24 00:41:43;;;;;;;61.33;43.25;;;;;;;;;;5096017;28;20126;-50
2022/03/24 00:44:09;;;;;;;64.28;47.22;;;4.00;99.90;;;;;;5096070;28;20059;-50
2022/03/24 00:46:37;;;;;;;58.83;44.42;;;4.00;99.90;;;;;;5095965;28;20200;-50
2022/03/24 00:49:04;;;;;;;64.75;47.38;;;;;;;;;;5096861;28;20126;-50
2022/03/24 00:51:30;;;;;;;63.70;45.60;;;;;;;;;;5096154;28;20279;-50
2022/03/24 00:53:56;;;;;;;58.92;42.00;;;;;;;;;;5096447;28;20567;-47
2022/03/24 00:56:23;;;;;;;58.88;43.00;;;;;;;;;;5096074;28;20055;-51
2022/03/24 00:58:50;;;;;;;54.65;40.45;;;3.80;99.90;;;;;;5095453;28;20410;-50
2022/03/24 01:01:16;;;;;;;61.38;44.85;;;;;;;;;;5096979;28;20082;-51
2022/03/24 01:03:43;;;;;;;53.15;39.47;;;3.80;99.90;;;;;;5096728;28;20047;-48
2022/03/24 01:06:10;;;;;;;55.72;43.25;;;4.00;99.90;;;;;;5076583;28;20662;-49
2022/03/24 01:08:36;;;;;;;65.32;45.42;;;3.70;99.90;;;;;;5096892;28;20800;-51
2022/03/24 01:11:07;;;;;;;68.93;49.63;;;3.80;99.90;;;;;;5095664;28;20119;-51
2022/03/24 01:13:34;;;;;;;65.53;47.55;;;3.80;99.90;;;;;;5095410;28;20051;-48
2022/03/24 01:16:00;;;;;;;64.45;46.05;;;;;;;;;;5097291;28;20047;-48
2022/03/24 01:18:26;;;;;;;64.43;44.72;;;3.80;99.90;;;;;;5096603;28;20036;-48
2022/03/24 01:20:52;;;;;;;61.90;45.80;;;;;;;;;;5096966;28;20035;-50
2022/03/24 01:23:19;;;;;;;63.45;46.38;;;;;;;;;;5096060;28;21079;-49
2022/03/24 01:25:45;;;;;;;63.38;45.72;;;;;;;;;;5096208;28;20502;-49
2022/03/24 01:28:11;;;;;;;59.65;42.50;;;;;;;;;;5096000;28;20058;-50
2022/03/24 01:30:41;;;;;;;59.08;43.33;;;;;;;;;;5096453;28;20040;-46
2022/03/24 01:33:08;;;;;;;56.60;41.97;;;;;;;;;;5095947;28;20508;-49
2022/03/24 01:35:34;;;;;;;58.78;42.90;;;;;;;;;;5095318;28;20054;-50
2022/03/24 01:38:00;;;;;;;59.47;41.70;;;;;;;;;;5095676;28;20040;-47
2022/03/24 01:40:26;;;;;;;56.83;41.90;;;;;;;;;;5094380;28;20120;-49
2022/03/24 01:42:55;;;;;;;58.80;41.42;;;3.60;99.90;;;;;;5094393;28;20139;-49
2022/03/24 01:45:21;;;;;;;60.15;43.97;;;;;;;;;;5093311;28;20871;-47
2022/03/24 01:47:47;;;;;;;55.78;41.78;;;;;;;;;;5094872;28;20039;-48
2022/03/24 01:50:15;;;;;;;58.10;43.40;;;3.60;99.90;;;;;;5094298;28;20127;-48
2022/03/24 01:52:43;;;;;;;62.25;45.58;;;;;;;;;;5094786;28;20036;-47
2022/03/24 01:55:11;;;;;;;62.97;44.85;;;3.60;99.90;;;;;;5094464;28;20043;-45
2022/03/24 01:57:37;;;;;;;73.22;49.58;;;;;;;;;;5075436;28;21262;-47
2022/03/24 02:00:05;;;;;;;62.33;44.22;;;3.30;99.90;;;;;;5094640;28;20043;-50
2022/03/24 02:02:31;;;;;;;56.60;42.42;;;;;;;;;;5095073;28;20035;-47
2022/03/24 02:04:59;;;;;;;60.38;44.95;;;3.30;99.90;;;;;;5094387;28;20051;-45
2022/03/24 02:07:25;;;;;;;57.75;42.50;;;;;;;;;;5094257;28;20056;-46
2022/03/24 02:09:51;;;;;;;57.53;41.67;;;;;;;;;;5095322;28;20074;-45
2022/03/24 02:12:17;;;;;;;60.85;41.80;;;;;;;;;;5094177;28;20146;-44
2022/03/24 02:14:43;;;;;;;54.33;41.15;;;;;;;;;;5094207;28;20373;-45
2022/03/24 02:17:10;;;;;;;55.92;38.92;;;;;;;;;;5095842;28;20050;-47
2022/03/24 02:19:37;;;;;;;55.92;40.08;;;3.20;99.90;;;;;;5095787;28;20035;-50
2022/03/24 02:22:13;;;;;;;58.80;42.80;;;3.10;99.90;;;;;;5095493;28;20036;-45
2022/03/24 02:24:41;;;;;;;57.97;42.42;;;3.20;99.90;;;;;;5095048;28;20035;-47
2022/03/24 02:27:08;;;;;;;57.15;38.92;;;;;;;;;;5095461;28;20069;-47
2022/03/24 02:29:36;;;;;;;60.60;41.22;;;3.20;99.90;;;;;;5095550;28;20173;-49
2022/03/24 02:32:07;;;;;;;57.17;40.10;;;3.00;99.90;;;;;;5095729;28;20039;-45
2022/03/24 02:34:38;;;;;;;57.30;40.80;;;3.00;99.90;;;;;;5094852;28;20369;-45
2022/03/24 02:37:07;;;;;;;56.03;39.35;;;;;;;;;;5093674;28;20130;-46
2022/03/24 02:39:38;;;;;;;62.38;45.35;;;3.00;99.90;;;;;;5093159;28;20038;-44
2022/03/24 02:42:04;;;;;;;69.93;47.90;;;;;;;;;;5093398;28;20036;-48
2022/03/24 02:44:30;;;;;;;73.55;49.47;;;;;;;;;;5092640;28;20047;-47
2022/03/24 02:46:58;;;;;;;88.13;51.88;;;2.90;99.90;;;;;;5093142;28;24619;-44
2022/03/24 02:49:26;;;;;;;80.50;50.33;;;3.00;99.90;;;;;;5094147;28;20493;-44
2022/03/24 02:51:58;;;;;;;68.47;44.83;;;2.90;99.90;;;;;;5093627;28;20522;-44
2022/03/24 02:54:24;;;;;;;72.47;47.90;;;;;;;;;;5093740;28;20492;-45
2022/03/24 02:56:50;;;;;;;64.25;45.72;;;;;;;;;;5092463;28;20550;-43
2022/03/24 02:59:18;;;;;;;64.30;43.75;;;2.80;99.90;;;;;;5091444;28;20403;-44
2022/03/24 03:01:54;;;;;;;57.20;38.25;;;2.90;99.90;;;;;;5092729;28;20035;-47
2022/03/24 03:04:20;;;;;;;60.75;39.83;;;;;;;;;;5092295;28;20588;-45
2022/03/24 03:06:46;;;;;;;65.13;41.80;;;;;;;;;;5093516;28;20043;-47
2022/03/24 03:09:16;;;;;;;58.95;39.40;;;;;;;;;;5093616;28;20077;-44
2022/03/24 03:11:44;;;;;;;57.80;41.15;;;;;;;;;;5091159;28;20047;-47
2022/03/24 03:14:14;;;;;;;61.53;41.53;;;;;;;;;;5093306;28;20043;-43
2022/03/24 03:16:40;;;;;;;59.42;42.30;;;2.70;99.90;;;;;;5093023;28;20032;-46
2022/03/24 03:19:08;;;;;;;71.47;48.58;;;;;;;;;;5098060;28;20039;-42
2022/03/24 03:21:39;;;;;;;63.95;43.13;;;2.80;99.90;;;;;;5098534;28;20091;-43
2022/03/24 03:24:05;;;;;;;65.88;43.63;;;2.70;99.90;;;;;;5098746;28;20047;-44
2022/03/24 03:26:34;;;;;;;61.92;40.65;;;2.70;99.90;;;;;;5098018;28;20063;-43
2022/03/24 03:29:00;;;;;;;65.18;43.72;;;;;;;;;;5098578;28;20043;-45
2022/03/24 03:31:26;;;;;;;73.57;45.85;;;;;;;;;;5099579;28;20048;-45
2022/03/24 03:33:52;;;;;;;68.68;44.08;;;;;;;;;;5099158;28;20515;-47
2022/03/24 03:36:19;;;;;;;73.95;45.95;;;2.60;99.90;;;;;;5099449;28;20047;-43
2022/03/24 03:38:46;;;;;;;71.30;46.30;;;;;;;;;;5099767;28;20079;-44
2022/03/24 03:41:12;;;;;;;64.60;43.58;;;;;;;;;;5099367;28;20040;-46
2022/03/24 03:43:38;;;;;;;63.53;43.53;;;;;;;;;;5099216;28;20146;-47
2022/03/24 03:46:05;;;;;;;69.30;43.50;;;;;;;;;;5099511;28;20225;-47
2022/03/24 03:48:31;;;;;;;72.07;45.28;;;;;;;;;;5098520;28;20516;-45
2022/03/24 03:50:57;;;;;;;60.17;40.17;;;;;;;;;;5099685;28;20050;-49
2022/03/24 03:53:23;;;;;;;69.50;43.97;;;;;;;;;;5099090;28;20413;-46
2022/03/24 03:55:51;;;;;;;68.30;41.97;;;2.20;99.90;;;;;;5098095;28;20498;-51
2022/03/24 03:58:17;;;;;;;63.33;41.80;;;;;;;;;;5097821;28;20045;-49
2022/03/24 04:00:52;;;;;;;61.25;41.75;;;;;;;;;;5097824;28;20052;-49
2022/03/24 04:03:18;;;;;;;61.08;40.42;;;;;;;;;;5098035;28;20047;-46
2022/03/24 04:05:44;;;;;;;62.42;39.95;;;;;;;;;;5097185;28;20079;-50
2022/03/24 04:08:11;;;;;;;56.15;38.13;;;2.10;99.90;;;;;;5097422;28;20047;-51
2022/03/24 04:10:39;;;;;;;52.22;35.95;;;2.10;99.90;;;;;;5097310;28;20183;-51
2022/03/24 04:13:06;;;;;;;51.42;35.03;;;2.10;99.90;;;;;;5097826;28;20043;-53
2022/03/24 04:15:33;;;;;;;47.78;34.90;;;;;;;;;;5097426;28;20602;-51
2022/03/24 04:17:59;;;;;;;47.80;32.05;;;;;;;;;;5098091;28;20464;-47
2022/03/24 04:20:26;;;;;;;47.33;32.63;;;;;;;;;;5097949;28;20047;-52
2022/03/24 04:22:53;;;;;;;54.85;36.13;;;1.80;99.90;;;;;;5098040;28;20082;-50
2022/03/24 04:25:21;;;;;;;54.60;35.72;;;2.20;99.90;;;;;;5097573;28;20051;-49
2022/03/24 04:27:47;;;;;;;61.35;38.58;;;2.00;99.90;;;;;;5097371;28;20530;-48
2022/03/24 04:30:14;;;;;;;60.33;40.67;;;2.10;99.90;;;;;;5097664;28;20050;-51
2022/03/24 04:32:44;;;;;;;57.45;38.67;;;2.10;99.90;;;;;;5097176;28;20051;-51
2022/03/24 04:35:10;;;;;;;50.05;34.80;;;;;;;;;;5097631;28;20044;-51
2022/03/24 04:37:36;;;;;;;49.63;31.85;;;;;;;;;;5078707;28;20096;-51
2022/03/24 04:40:05;;;;;;;55.45;36.53;;;2.10;99.90;;;;;;5097586;28;20069;-49
2022/03/24 04:42:31;;;;;;;52.83;35.85;;;;;;;;;;5096746;28;20061;-45
2022/03/24 04:44:58;;;;;;;49.00;33.97;;;;;;;;;;5097583;28;20077;-46
2022/03/24 04:47:27;;;;;;;55.50;37.15;;;2.00;99.90;;;;;;5098400;28;20116;-47
2022/03/24 04:49:54;;;;;;;51.83;32.95;;;;;;;;;;5098582;28;20400;-52
2022/03/24 04:52:22;;;;;;;49.22;33.90;;;;;;;;;;5097708;28;20044;-48
2022/03/24 04:54:50;;;;;;;55.40;37.38;;;2.00;99.90;;;;;;5098995;28;20047;-50
2022/03/24 04:57:16;;;;;;;62.72;39.53;;;;;;;;;;5098502;28;20043;-49
2022/03/24 04:59:43;;;;;;;61.58;42.15;;;;;;;;;;5097723;28;20634;-47
2022/03/24 05:02:12;;;;;;;54.30;38.35;;;;;;;;;;5098300;28;20125;-47
2022/03/24 05:04:38;;;;;;;56.63;37.40;;;;;;;;;;5095760;28;20780;-50
2022/03/24 05:07:04;;;;;;;51.05;35.70;;;2.00;99.90;;;;;;5091873;28;20055;-48
2022/03/24 05:09:31;;;;;;;58.95;40.45;;;2.20;99.90;;;;;;5091379;28;20542;-48
2022/03/24 05:11:57;;;;;;;73.70;42.17;;;;;;;;;;5093086;28;20450;-46
2022/03/24 05:14:23;;;;;;;62.97;42.25;;;;;;;;;;5091592;28;20531;-47
2022/03/24 05:16:49;;;;;;;63.72;43.20;;;;;;;;;;5091085;28;20692;-48
2022/03/24 05:19:17;;;;;;;63.30;42.55;;;1.90;99.90;;;;;;5093801;28;20035;-48
2022/03/24 05:21:43;;;;;;;61.72;42.03;;;;;;;;;;5095751;28;20024;-46
2022/03/24 05:24:09;;;;;;;62.80;41.92;;;;;;;;;;5094492;28;20062;-53
2022/03/24 05:26:38;;;;;;;67.18;42.53;;;2.00;99.90;;;;;;5094535;28;20511;-49
2022/03/24 05:29:04;;;;;;;73.43;45.20;;;;;;;;;;5095303;28;20679;-47
2022/03/24 05:31:30;;;;;;;67.05;43.40;;;;;;;;;;5095320;28;20032;-49
2022/03/24 05:33:59;;;;;;;71.28;44.40;;;2.20;99.90;;;;;;5093989;28;20044;-46
2022/03/24 05:36:25;;;;;;;70.07;44.88;;;;;;;;;;5094617;28;20046;-48
2022/03/24 05:38:51;;;;;;;67.53;43.10;;;;;;;;;;5093757;28;20456;-48
2022/03/24 05:41:18;;;;;;;71.05;44.45;;;;;;;;;;5095254;28;20040;-49
2022/03/24 05:44:02;;;;;;;71.65;46.22;;;;;;;;;;5095140;28;20476;-50
2022/03/24 05:46:36;;;;;;;70.65;45.25;;;2.50;99.90;;;;;;5075132;28;20474;-48
2022/03/24 05:49:04;;;;;;;70.78;45.75;;;2.20;99.90;;;;;;5075175;28;20264;-51
2022/03/24 05:51:30;;;;;;;80.03;48.65;;;;;;;;;;5092959;28;20096;-51
2022/03/24 05:53:57;;;;;;;67.72;45.50;;;;;;;;;;5094184;28;20500;-48
2022/03/24 05:56:23;;;;;;;80.65;51.22;;;;;;;;;;5094438;28;20104;-51
2022/03/24 05:58:50;;;;;;;81.82;52.25;;;;;;;;;;5094778;28;20085;-50
2022/03/24 06:01:17;;;;;;;77.28;48.78;;;2.70;99.90;;;;;;5093601;28;20105;-51
2022/03/24 06:03:45;;;;;;;72.30;46.53;;;2.80;99.90;;;;;;5093695;28;20036;-52
2022/03/24 06:06:12;;;;;;;69.78;46.40;;;;;;;;;;5093206;28;20373;-49
2022/03/24 06:08:43;;;;;;;68.25;46.55;;;3.20;99.90;;;;;;5095413;28;20059;-49
2022/03/24 06:11:15;;;;;;;74.13;46.47;;;3.40;99.90;;;;;;5095131;28;20562;-48
2022/03/24 06:13:41;;;;;;;80.72;45.33;;;3.40;99.90;;;;;;5094841;28;20108;-50
2022/03/24 06:16:07;;;;;;;71.20;47.30;;;;;;;;;;5095301;28;20274;-50
2022/03/24 06:18:35;;;;;;;64.80;43.90;;;;;;;;;;5094787;28;20063;-49
2022/03/24 06:21:01;;;;;;;68.32;44.92;;;4.60;99.90;;;;;;5095494;28;20040;-50
2022/03/24 06:23:27;;;;;;;64.22;42.05;;;4.60;99.90;;;;;;5094272;28;20069;-51
2022/03/24 06:25:53;;;;;;;60.42;42.53;;;5.00;99.90;;;;;;5094021;28;20035;-50
2022/03/24 06:28:18;;;;;;;65.78;43.28;;;5.10;99.90;;;;;;5094158;28;20082;-50
2022/03/24 06:30:44;;;;;;;56.85;40.15;;;6.20;99.90;;;;;;5094229;28;20085;-47
2022/03/24 06:33:10;;;;;;;63.60;43.22;;;5.80;99.90;;;;;;5094823;28;20054;-49
2022/03/24 06:35:38;;;;;;;59.28;41.78;;;6.10;99.90;;;;;;5094497;28;20028;-49
2022/03/24 06:38:04;;;;;;;59.30;40.30;;;6.70;99.90;;;;;;5093818;28;20104;-51
2022/03/24 06:40:30;;;;;;;61.80;39.67;;;8.70;99.90;;;;;;5091924;28;20035;-50
2022/03/24 06:42:59;;;;;;;54.40;39.65;;;7.70;99.90;;;;;;5076051;28;20594;-48
2022/03/24 06:45:25;;;;;;;52.15;39.45;;;8.20;99.90;;;;;;5092843;28;20047;-46
2022/03/24 06:47:50;;;;;;;57.13;41.85;;;10.10;99.90;;;;;;5092835;28;20128;-49
2022/03/24 06:50:17;;;;;;;53.17;41.15;;;9.20;99.90;;;;;;5095190;28;20499;-48
2022/03/24 06:52:43;;;;;;;59.28;42.90;;;9.60;99.90;;;;;;5092913;28;20428;-44
2022/03/24 06:55:14;;;;;;;57.38;43.88;;;10.00;99.90;;;;;;5093547;28;20277;-47
2022/03/24 06:57:41;;;;;;;58.92;44.60;;;12.20;99.90;;;;;;5092645;28;20067;-52
2022/03/24 07:00:13;;;;;;;53.95;41.47;;;10.80;99.90;;;;;;5092662;28;20961;-53
2022/03/24 07:02:43;;;;;;;55.92;42.75;;;11.10;99.90;;;;;;5093016;28;20078;-49
2022/03/24 07:05:12;;;;;;;65.78;49.28;;;12.20;99.90;;;;;;5093274;28;20079;-47
2022/03/24 07:07:38;;;;;;;65.55;49.38;;;12.00;99.90;;;;;;5092984;28;20074;-49
2022/03/24 07:10:06;;;;;;;67.47;50.72;;;12.10;99.90;;;;;;5094988;28;20077;-52
2022/03/24 07:12:31;;;;;;;65.93;51.15;;;11.20;99.90;;;;;;5093884;28;20043;-50
2022/03/24 07:14:57;;;;;;;60.30;48.97;;;11.40;99.90;;;;;;5092921;28;20062;-48
2022/03/24 07:17:23;;;;;;;60.63;48.05;;;11.40;99.90;;;;;;5073642;28;20419;-48
2022/03/24 07:19:49;;;;;;;68.03;52.67;;;11.60;99.90;;;;;;5094366;28;20527;-49
2022/03/24 07:22:15;;;;;;;67.38;54.08;;;12.60;99.90;;;;;;5074851;28;20047;-51
2022/03/24 07:24:43;;;;;;;69.68;54.30;;;11.60;99.90;;;;;;5093349;28;20051;-53
2022/03/24 07:27:10;;;;;;;70.55;53.45;;;12.00;99.90;;;;;;5093523;28;20039;-53
2022/03/24 07:29:35;;;;;;;70.13;55.55;;;12.40;99.90;;;;;;5057207;28;20136;-48
2022/03/24 07:32:04;;;;;;;73.07;53.33;;;12.90;99.90;;;;;;5094301;28;20130;-51
2022/03/24 07:34:30;;;;;;;67.07;52.58;;;12.90;99.90;;;;;;5092978;28;20504;-46
2022/03/24 07:36:56;;;;;;;66.72;51.63;;;13.30;99.90;;;;;;5094376;28;20085;-47
2022/03/24 07:39:24;;;;;;;61.42;49.45;;;13.80;99.90;;;;;;5093103;28;20529;-45
2022/03/24 07:41:49;;;;;;;62.05;50.08;;;13.80;99.90;;;;;;5093619;28;20046;-51
2022/03/24 07:44:15;;;;;;;66.07;50.25;;;14.90;99.90;;;;;;5093528;28;20036;-47
2022/03/24 07:46:41;;;;;;;72.78;54.25;;;14.00;99.90;;;;;;5093244;28;20866;-50
2022/03/24 07:49:07;;;;;;;63.05;50.67;;;13.60;99.90;;;;;;5094205;28;20510;-50
2022/03/24 07:51:34;;;;;;;67.80;51.00;;;13.40;99.90;;;;;;5093338;28;20694;-53
2022/03/24 07:54:03;;;;;;;62.67;51.40;;;13.00;99.90;;;;;;5074842;28;20047;-53
2022/03/24 07:56:31;;;;;;;62.10;50.22;;;13.00;99.90;;;;;;5093177;28;20228;-50
2022/03/24 07:58:58;;;;;;;60.67;50.80;;;13.50;99.90;;;;;;5092842;28;20479;-49
2022/03/24 08:01:32;;;;;;;58.60;49.72;;;15.10;99.90;;;;;;5092484;28;20039;-50
2022/03/24 08:04:00;;;;;;;58.47;48.03;;;14.50;99.90;;;;;;5092319;28;20066;-48
2022/03/24 08:06:28;;;;;;;58.90;48.97;;;15.50;99.90;;;;;;5093173;28;20059;-49
2022/03/24 08:08:54;;;;;;;55.50;47.00;;;16.00;99.90;;;;;;5093215;28;20070;-49
2022/03/24 08:11:22;;;;;;;65.95;51.45;;;16.10;99.90;;;;;;5092978;28;20047;-47
2022/03/24 08:13:52;;;;;;;58.33;49.10;;;16.60;99.90;;;;;;5091004;28;20043;-52
2022/03/24 08:16:18;;;;;;;61.20;50.45;;;17.60;99.90;;;;;;5091240;28;20147;-50
2022/03/24 08:18:43;;;;;;;60.65;51.88;;;16.60;99.90;;;;;;5091584;28;20036;-52
2022/03/24 08:21:09;;;;;;;629.47;477.52;;;16.60;99.90;;;;;;5092430;28;20100;-50
2022/03/24 08:23:35;;;;;;;673.92;614.58;;;16.40;99.90;;;;;;5092894;28;20524;-52
2022/03/24 08:26:00;;;;;;;458.92;426.23;;;18.10;99.90;;;;;;5072457;28;20090;-52
2022/03/24 08:28:26;;;;;;;345.90;321.85;;;15.50;99.90;;;;;;5090279;28;20076;-47
2022/03/24 08:30:51;;;;;;;327.48;304.17;;;17.30;99.90;;;;;;5091725;28;20181;-51
2022/03/24 08:33:20;;;;;;;323.80;301.70;;;15.50;99.90;;;;;;5072342;28;20056;-47
2022/03/24 08:35:45;;;;;;;385.77;358.10;;;15.70;99.90;;;;;;5091446;28;20138;-50
2022/03/24 08:38:11;;;;;;;441.67;411.90;;;13.30;99.90;;;;;;5074523;28;20039;-49
2022/03/24 08:40:39;;;;;;;431.33;401.20;;;14.90;99.90;;;;;;5090173;28;20074;-50
2022/03/24 08:43:05;;;;;;;363.05;336.95;;;15.80;99.90;;;;;;5092496;28;20043;-51
2022/03/24 08:45:31;;;;;;;428.45;399.75;;;15.30;99.90;;;;;;5091724;28;20072;-49
2022/03/24 08:47:59;;;;;;;545.08;505.08;;;15.30;99.90;;;;;;5075672;28;20135;-50
2022/03/24 08:50:26;;;;;;;391.50;363.83;;;15.80;99.90;;;;;;5093700;28;20036;-48
2022/03/24 08:52:51;;;;;;;397.27;370.55;;;15.30;99.90;;;;;;5094060;28;20039;-49
2022/03/24 08:55:18;;;;;;;573.47;532.30;;;14.90;99.90;;;;;;5097944;28;20042;-51
2022/03/24 08:57:44;;;;;;;447.70;415.75;;;14.80;99.90;;;;;;5097403;28;20035;-50
2022/03/24 09:00:15;;;;;;;481.52;450.23;;;15.10;99.90;;;;;;5095630;28;20599;-48
2022/03/24 09:02:54;;;;;;;452.33;421.33;;;15.50;99.90;;;;;;5095620;28;20474;-46
2022/03/24 09:05:20;;;;;;;406.95;377.00;;;15.90;99.90;;;;;;5098547;28;20515;-47
2022/03/24 09:07:46;;;;;;;341.80;319.85;;;16.00;99.90;;;;;;5097647;28;20040;-47
2022/03/24 09:10:15;;;;;;;364.48;341.15;;;16.30;99.90;;;;;;5095581;28;20040;-48
2022/03/24 09:12:46;;;;;;;359.65;335.63;;;16.50;99.90;;;;;;5094566;28;20043;-50
2022/03/24 09:15:15;;;;;;;373.27;349.67;;;16.60;99.90;;;;;;5096998;28;20044;-45
2022/03/24 09:17:42;;;;;;;397.25;371.05;;;16.80;99.90;;;;;;5094696;28;20509;-45
2022/03/24 09:20:13;;;;;;;327.15;305.08;;;17.10;99.90;;;;;;5094800;28;20051;-50
2022/03/24 09:22:42;;;;;;;566.60;523.45;;;18.20;99.90;;;;;;5110951;27;20043;-45
2022/03/24 09:25:09;;;;;;;496.10;457.67;;;17.60;99.90;;;;;;5095690;28;20076;-46
2022/03/24 09:27:36;;;;;;;426.48;391.85;;;18.20;99.90;;;;;;5093754;28;20043;-46
2022/03/24 09:30:07;;;;;;;53.47;42.80;;;18.30;99.90;;;;;;5094628;28;20078;-45
2022/03/24 09:32:33;;;;;;;50.20;40.92;;;18.80;99.90;;;;;;5094318;28;20057;-44
2022/03/24 09:34:59;;;;;;;47.17;39.63;;;18.50;99.90;;;;;;5096159;28;20109;-46
2022/03/24 09:37:25;;;;;;;49.25;40.10;;;19.80;99.90;;;;;;5096218;28;20055;-47
2022/03/24 09:39:51;;;;;;;44.00;37.65;;;18.30;99.90;;;;;;5094406;28;20066;-47
2022/03/24 09:42:18;;;;;;;46.60;38.45;;;18.90;99.90;;;;;;5094973;28;20042;-45
2022/03/24 09:44:46;;;;;;;47.30;37.85;;;20.10;99.90;;;;;;5094051;28;20302;-45
2022/03/24 09:47:12;;;;;;;44.42;38.05;;;18.80;99.90;;;;;;5094678;28;20079;-53
2022/03/24 09:49:40;;;;;;;48.10;39.85;;;19.20;99.90;;;;;;5094499;28;20044;-44
2022/03/24 09:52:07;;;;;;;45.33;38.55;;;19.20;99.90;;;;;;5094247;28;20127;-46
2022/03/24 09:54:33;;;;;;;46.72;38.60;;;19.20;99.90;;;;;;5094044;28;20062;-44
2022/03/24 09:57:07;;;;;;;47.17;39.13;;;19.20;99.90;;;;;;5075720;28;20055;-43
2022/03/24 09:59:33;;;;;;;46.95;37.08;;;18.80;99.90;;;;;;5094451;28;20511;-43
2022/03/24 10:02:01;;;;;;;49.88;40.53;;;18.60;99.90;;;;;;5093978;28;20040;-45
2022/03/24 10:04:26;;;;;;;48.60;40.28;;;20.10;99.90;;;;;;5094730;28;20057;-43
2022/03/24 10:07:01;;;;;;;52.83;40.22;;;19.20;99.90;;;;;;5095038;28;20052;-43
2022/03/24 10:09:36;;;;;;;47.55;38.47;;;17.90;99.90;;;;;;5094861;28;20061;-45
2022/03/24 10:12:05;;;;;;;50.40;39.00;;;17.80;99.90;;;;;;5093654;28;20047;-46
2022/03/24 10:14:30;;;;;;;45.55;37.50;;;17.80;99.90;;;;;;5095747;28;20079;-45
2022/03/24 10:17:08;;;;;;;48.50;35.15;;;18.90;99.90;;;;;;5094512;28;20118;-43
2022/03/24 10:19:35;;;;;;;43.25;33.58;;;17.80;99.90;;;;;;5093915;28;20067;-44
2022/03/24 10:22:08;;;;;;;46.72;36.95;;;17.70;99.90;;;;;;5096061;28;20047;-44
2022/03/24 10:24:40;;;;;;;51.90;37.65;;;18.10;99.90;;;;;;5095035;28;20203;-44
2022/03/24 10:27:05;;;;;;;50.05;38.83;;;18.00;99.90;;;;;;5093769;28;20524;-45
2022/03/24 10:29:33;;;;;;;46.10;36.72;;;18.00;99.90;;;;;;5075419;28;20049;-43
2022/03/24 10:32:00;;;;;;;42.38;31.77;;;19.80;99.90;;;;;;5092826;28;20504;-44
2022/03/24 10:34:35;;;;;;;46.58;34.42;;;17.90;99.90;;;;;;5093017;28;20352;-46
2022/03/24 10:37:13;;;;;;;46.58;32.60;;;18.00;99.90;;;;;;5094229;28;20036;-46
2022/03/24 10:40:02;;;;;;;43.20;31.98;;;19.20;99.90;;;;;;5093475;28;20048;-49
2022/03/24 10:42:31;;;;;;;39.45;28.17;;;18.30;99.90;;;;;;5093022;28;20112;-49
2022/03/24 10:45:10;;;;;;;35.00;28.38;;;19.00;99.90;;;;;;5093830;28;20511;-44
2022/03/24 10:47:45;;;;;;;40.25;31.85;;;18.20;99.90;;;;;;5092703;28;20047;-45
2022/03/24 10:50:21;;;;;;;41.15;33.30;;;18.30;99.90;;;;;;5092761;28;20051;-48
2022/03/24 10:52:47;;;;;;;44.95;33.90;;;18.30;99.90;;;;;;5092317;28;20047;-47
2022/03/24 10:55:32;;;;;;;40.63;32.78;;;18.30;99.90;;;;;;5092094;28;20392;-49
2022/03/24 10:57:58;;;;;;;41.88;31.17;;;18.20;99.90;;;;;;5092834;28;20039;-46
2022/03/24 11:00:24;;;;;;;39.83;30.27;;;18.50;99.90;;;;;;5092926;28;20377;-48
2022/03/24 11:02:50;;;;;;;39.67;32.15;;;18.20;99.90;;;;;;5091846;28;20048;-48
2022/03/24 11:05:17;;;;;;;42.53;31.90;;;18.60;99.90;;;;;;5091985;28;20066;-49
2022/03/24 11:07:54;;;;;;;40.78;29.60;;;18.60;99.90;;;;;;5093889;28;20041;-45
2022/03/24 11:10:22;;;;;;;40.95;31.17;;;18.60;99.50;;;;;;5093181;28;20128;-48
2022/03/24 11:12:50;;;;;;;46.10;30.25;;;18.60;99.70;;;;;;5092373;28;20265;-48
2022/03/24 11:15:19;;;;;;;41.17;34.58;;;18.50;98.60;;;;;;5072945;28;20047;-44
2022/03/24 11:17:46;;;;;;;38.90;30.80;;;18.50;99.90;;;;;;5092772;28;24263;-48
2022/03/24 11:20:17;;;;;;;48.63;36.58;;;18.50;99.00;;;;;;5094479;28;20093;-49
2022/03/24 11:22:51;;;;;;;46.80;36.72;;;19.40;98.90;;;;;;5092952;28;20043;-48
2022/03/24 11:25:18;;;;;;;47.75;35.58;;;18.20;99.60;;;;;;5093362;28;20120;-49
2022/03/24 11:27:45;;;;;;;45.58;35.00;;;18.30;99.90;;;;;;5093287;28;20120;-49
2022/03/24 11:30:12;;;;;;;47.17;34.03;;;18.50;99.90;;;;;;5092476;28;20675;-47
2022/03/24 11:32:42;;;;;;;42.15;33.80;;;18.40;99.70;;;;;;5092986;28;20044;-47
2022/03/24 11:35:08;;;;;;;45.35;31.73;;;19.00;99.90;;;;;;5093118;28;20044;-48
2022/03/24 11:37:35;;;;;;;39.20;31.77;;;18.50;99.90;;;;;;5074332;28;20044;-47
2022/03/24 11:40:06;;;;;;;45.30;32.40;;;18.30;99.20;;;;;;5093078;28;20039;-50
2022/03/24 11:42:34;;;;;;;43.40;32.97;;;18.60;99.90;;;;;;5092229;28;20035;-46
2022/03/24 11:45:18;;;;;;;44.67;32.67;;;18.70;99.30;;;;;;5092643;28;20055;-45
2022/03/24 11:47:52;;;;;;;42.45;32.95;;;18.40;98.10;;;;;;5092572;28;20108;-48
2022/03/24 11:50:34;;;;;;;44.33;34.30;;;18.40;99.40;;;;;;5092104;28;20726;-45
2022/03/24 11:53:11;;;;;;;;;;;18.60;99.30;;;;;;5092589;28;20043;-46
2022/03/24 11:55:40;;;;;;;42.83;33.72;;;18.50;99.00;;;;;;5091695;28;20018;-47
2022/03/24 11:58:06;;;;;;;48.38;34.25;;;18.50;99.70;;;;;;5090997;28;20142;-47
2022/03/24 12:00:32;;;;;;;45.00;33.63;;;18.40;99.80;;;;;;5093455;28;20039;-49
2022/03/24 12:03:01;;;;;;;43.35;33.10;;;18.30;99.90;;;;;;5091929;28;20040;-47
2022/03/24 12:05:55;;;;;;;41.38;32.90;;;18.20;99.90;;;;;;5091090;28;21009;-48
2022/03/24 12:08:28;;;;;;;42.15;32.20;;;18.30;99.90;;;;;;5091653;28;20154;-50
2022/03/24 12:10:55;;;;;;;45.42;32.85;;;18.30;99.60;;;;;;5092954;28;20032;-44
2022/03/24 12:13:21;;;;;;;45.47;32.40;;;18.20;99.30;;;;;;5092313;28;20602;-48
2022/03/24 12:16:21;;;;;;;41.03;31.02;;;19.20;99.10;;;;;;5091581;28;20032;-49
2022/03/24 12:18:47;;;;;;;41.65;31.45;;;18.20;98.30;;;;;;5091791;28;20623;-48
2022/03/24 12:21:28;;;;;;;43.92;31.58;;;18.10;98.50;;;;;;5073016;28;20123;-46
2022/03/24 12:24:14;;;;;;;40.35;29.92;;;18.10;95.00;;;;;;5091429;28;20118;-49
2022/03/24 12:26:54;;;;;;;38.35;30.33;;;17.90;96.10;;;;;;5092100;28;20051;-49
2022/03/24 12:29:22;;;;;;;38.55;31.38;;;17.70;95.40;;;;;;5072678;28;20119;-48
2022/03/24 12:32:12;;;;;;;39.72;31.30;;;17.50;96.00;;;;;;5091422;28;20131;-45
2022/03/24 12:34:46;;;;;;;40.45;31.77;;;17.40;96.00;;;;;;5092838;28;20974;-48
2022/03/24 12:37:27;;;;;;;39.70;31.33;;;17.90;96.00;;;;;;5093218;28;20040;-48
2022/03/24 12:40:11;;;;;;;41.20;31.42;;;17.60;96.90;;;;;;5092858;28;20035;-49
2022/03/24 12:42:48;;;;;;;39.20;31.40;;;17.60;95.30;;;;;;5091995;28;20097;-45
2022/03/24 12:45:36;;;;;;;39.15;28.95;;;17.30;95.00;;;;;;5092995;28;20032;-44
2022/03/24 12:48:12;;;;;;;41.83;31.38;;;19.60;97.40;;;;;;5092842;28;20039;-43
2022/03/24 12:50:37;;;;;;;48.17;33.25;;;17.40;96.50;;;;;;5074021;28;20552;-46
2022/03/24 12:53:05;;;;;;;44.72;31.95;;;17.50;96.90;;;;;;5092362;28;20044;-44
2022/03/24 12:55:34;;;;;;;49.70;31.73;;;17.40;97.20;;;;;;5091407;28;20063;-46
2022/03/24 12:58:04;;;;;;;44.75;32.40;;;17.70;96.20;;;;;;5090707;28;20381;-46
2022/03/24 13:00:32;;;;;;;41.70;30.85;;;17.20;96.10;;;;;;5091693;28;20046;-44
2022/03/24 13:03:00;;;;;;;44.53;33.15;;;17.50;95.80;;;;;;5090369;28;20460;-43